Time;durP1;ratioP1;P1;durP2;ratioP2;P2;SDS_P1;SDS_P2;PMS_P1;PMS_P2;Temp;Humidity;BMP_temperature;BMP_pressure;BME280_temperature;BME280_humidity;BME280_pressure;Samples;Min_cycle;Max_cycle;Signal;HPM_P1;HPM_P2
2023/04/25 00:01:37;;;;;;;0.88;0.88;;;;;;;;;;4993593;28;20217;-50
2023/04/25 00:04:03;;;;;;;1.35;1.20;;;;;;;;;;4994116;28;20188;-50
2023/04/25 00:06:31;;;;;;;0.93;0.88;;;;;;;;;;4994589;28;20181;-50
2023/04/25 00:08:57;;;;;;;0.93;0.90;;;;;;;;;;4993941;28;20217;-53
2023/04/25 00:11:23;;;;;;;0.90;0.90;;;;;;;;;;4994362;28;20221;-49
2023/04/25 00:13:52;;;;;;;0.80;0.80;;;;;;;;;;4993674;28;20643;-50
2023/04/25 00:16:19;;;;;;;0.98;0.95;;;;;;;;;;4993856;28;20231;-50
2023/04/25 00:18:51;;;;;;;0.88;0.80;;;;;;;;;;4994698;28;20239;-49
2023/04/25 00:21:17;;;;;;;1.10;1.02;;;;;;;;;;4993994;28;20295;-50
2023/04/25 00:23:45;;;;;;;1.13;1.02;;;;;;;;;;4993958;28;20196;-50
2023/04/25 00:26:11;;;;;;;0.80;0.80;;;;;;;;;;4992632;28;20217;-49
2023/04/25 00:28:37;;;;;;;0.70;0.70;;;;;;;;;;4994231;28;20208;-49
2023/04/25 00:31:03;;;;;;;1.73;0.90;;;;;;;;;;4994082;28;20264;-50
2023/04/25 00:33:29;;;;;;;1.45;1.20;;;;;;;;;;4993860;28;20193;-50
2023/04/25 00:35:56;;;;;;;0.88;0.85;;;;;;;;;;4993400;28;20220;-49
2023/04/25 00:38:22;;;;;;;0.90;0.90;;;;;;;;;;4994664;28;20565;-49
2023/04/25 00:40:48;;;;;;;1.33;1.00;;;;;;;;;;4993002;28;20224;-50
2023/04/25 00:43:13;;;;;;;0.80;0.80;;;;;;;;;;4993204;28;20213;-50
2023/04/25 00:45:40;;;;;;;0.90;0.90;;;;;;;;;;4977082;28;20460;-49
2023/04/25 00:48:06;;;;;;;0.88;0.80;;;;;;;;;;4991893;28;20177;-50
2023/04/25 00:50:34;;;;;;;0.98;0.90;;;;;;;;;;4990758;28;20545;-49
2023/04/25 00:53:00;;;;;;;0.90;0.90;;;;;;;;;;4994038;28;20612;-50
2023/04/25 00:55:26;;;;;;;0.90;0.85;;;;;;;;;;4992867;28;20208;-50
2023/04/25 00:57:52;;;;;;;1.05;0.98;;;;;;;;;;4992671;28;20185;-50
2023/04/25 01:00:18;;;;;;;0.98;0.98;;;;;;;;;;4993796;28;20193;-50
2023/04/25 01:02:45;;;;;;;1.08;0.98;;;;;;;;;;4993646;28;20243;-50
2023/04/25 01:05:11;;;;;;;2.13;1.05;;;;;;;;;;4993447;28;20189;-50
2023/04/25 01:07:38;;;;;;;0.90;0.90;;;;;;;;;;4995968;28;20181;-49
2023/04/25 01:10:04;;;;;;;1.00;0.90;;;;;;;;;;4997137;28;20460;-49
2023/04/25 01:12:30;;;;;;;0.90;0.90;;;;;;;;;;4996414;28;20262;-50
2023/04/25 01:14:56;;;;;;;0.88;0.88;;;;;;;;;;4997205;28;20499;-50
2023/04/25 01:17:22;;;;;;;0.80;0.80;;;;;;;;;;4996648;28;20182;-50
2023/04/25 01:19:48;;;;;;;1.00;1.00;;;;;;;;;;4996997;28;20584;-49
2023/04/25 01:22:14;;;;;;;0.80;0.80;;;;;;;;;;4995963;28;20216;-49
2023/04/25 01:24:40;;;;;;;0.80;0.80;;;;;;;;;;4997730;28;20185;-49
2023/04/25 01:27:06;;;;;;;1.00;0.90;;;;;;;;;;4996085;28;20272;-50
2023/04/25 01:29:33;;;;;;;1.27;1.17;;;;;;;;;;4996105;28;20192;-50
2023/04/25 01:31:59;;;;;;;0.90;0.90;;;;;;;;;;4996324;28;20255;-49
2023/04/25 01:34:25;;;;;;;1.00;0.90;;;;;;;;;;4997104;28;20192;-50
2023/04/25 01:36:52;;;;;;;1.25;1.00;;;;;;;;;;4997227;28;20200;-50
2023/04/25 01:39:18;;;;;;;1.10;1.00;;;;;;;;;;4996982;28;20189;-50
2023/04/25 01:41:44;;;;;;;0.70;0.70;;;;;;;;;;4996093;28;20212;-50
2023/04/25 01:44:10;;;;;;;0.82;0.82;;;;;;;;;;4996850;28;20181;-50
2023/04/25 01:46:36;;;;;;;1.10;1.00;;;;;;;;;;4995685;28;20179;-50
2023/04/25 01:49:03;;;;;;;0.90;0.90;;;;;;;;;;4996251;28;20554;-49
2023/04/25 01:51:29;;;;;;;1.05;0.95;;;;;;;;;;4996906;28;20177;-50
2023/04/25 01:53:55;;;;;;;1.10;1.00;;;;;;;;;;4996621;28;20200;-50
2023/04/25 01:56:21;;;;;;;0.70;0.70;;;;;;;;;;4996376;28;20209;-50
2023/04/25 01:58:47;;;;;;;1.10;1.10;;;;;;;;;;4997061;28;20177;-49
2023/04/25 02:01:13;;;;;;;0.80;0.80;;;;;;;;;;4994693;28;20189;-50
2023/04/25 02:03:39;;;;;;;0.98;0.98;;;;;;;;;;4996263;28;20177;-50
2023/04/25 02:06:05;;;;;;;0.93;0.93;;;;;;;;;;4996578;28;20611;-50
2023/04/25 02:08:31;;;;;;;0.90;0.90;;;;;;;;;;4995806;28;20247;-50
2023/04/25 02:10:57;;;;;;;0.90;0.90;;;;;;;;;;4996384;28;20484;-50
2023/04/25 02:13:23;;;;;;;0.70;0.70;;;;;;;;;;4994380;28;20178;-50
2023/04/25 02:15:49;;;;;;;1.13;1.05;;;;;;;;;;4995564;28;20181;-50
2023/04/25 02:18:18;;;;;;;0.75;0.75;;;;;;;;;;4995448;28;20189;-50
2023/04/25 02:20:44;;;;;;;1.05;0.80;;;;;;;;;;4996967;28;20185;-49
2023/04/25 02:23:10;;;;;;;1.65;0.98;;;;;;;;;;4995312;28;20260;-50
2023/04/25 02:25:36;;;;;;;1.10;1.00;;;;;;;;;;4995799;28;20177;-49
2023/04/25 02:28:02;;;;;;;1.05;1.05;;;;;;;;;;4994991;28;20189;-50
2023/04/25 02:30:28;;;;;;;1.08;1.00;;;;;;;;;;4996357;28;20576;-50
2023/04/25 02:32:54;;;;;;;0.80;0.80;;;;;;;;;;4995155;28;20189;-49
2023/04/25 02:35:20;;;;;;;1.00;1.00;;;;;;;;;;4996408;28;20247;-50
2023/04/25 02:37:46;;;;;;;0.98;0.98;;;;;;;;;;4995734;28;20700;-50
2023/04/25 02:40:12;;;;;;;1.02;1.00;;;;;;;;;;4996214;28;20268;-49
2023/04/25 02:42:38;;;;;;;0.90;0.90;;;;;;;;;;4994759;28;20240;-50
2023/04/25 02:45:04;;;;;;;0.70;0.70;;;;;;;;;;4990439;28;20268;-50
2023/04/25 02:47:30;;;;;;;0.90;0.90;;;;;;;;;;4995343;28;20181;-50
2023/04/25 02:49:56;;;;;;;0.80;0.80;;;;;;;;;;4995250;28;20208;-49
2023/04/25 02:52:22;;;;;;;0.70;0.70;;;;;;;;;;4994515;28;20743;-50
2023/04/25 02:54:48;;;;;;;1.02;0.88;;;;;;;;;;4995715;28;20208;-49
2023/04/25 02:57:14;;;;;;;0.90;0.90;;;;;;;;;;4994343;28;20189;-50
2023/04/25 02:59:40;;;;;;;0.98;0.95;;;;;;;;;;4990651;28;20451;-50
2023/04/25 03:02:06;;;;;;;1.00;0.90;;;;;;;;;;4992503;28;20209;-48
2023/04/25 03:04:33;;;;;;;1.15;1.05;;;;;;;;;;4995220;28;20177;-49
2023/04/25 03:06:59;;;;;;;0.88;0.88;;;;;;;;;;4995197;28;20184;-48
2023/04/25 03:09:25;;;;;;;1.10;0.80;;;;;;;;;;4994797;28;20224;-49
2023/04/25 03:11:51;;;;;;;1.30;1.20;;;;;;;;;;4995741;28;20205;-48
2023/04/25 03:14:17;;;;;;;0.90;0.90;;;;;;;;;;4993608;28;20193;-49
2023/04/25 03:16:43;;;;;;;0.90;0.90;;;;;;;;;;4995352;28;20192;-49
2023/04/25 03:19:09;;;;;;;1.60;1.00;;;;;;;;;;4995215;28;20466;-49
2023/04/25 03:21:35;;;;;;;2.58;1.20;;;;;;;;;;4994404;28;20299;-54
2023/04/25 03:24:02;;;;;;;3.00;1.27;;;;;;;;;;4994030;28;20458;-47
2023/04/25 03:26:28;;;;;;;6.47;1.38;;;;;;;;;;4994659;28;20185;-46
2023/04/25 03:28:54;;;;;;;6.63;1.30;;;;;;;;;;4994684;28;20197;-46
2023/04/25 03:31:20;;;;;;;5.03;1.45;;;;;;;;;;4994630;28;20177;-40
2023/04/25 03:33:46;;;;;;;6.88;1.50;;;;;;;;;;4994525;28;20200;-39
2023/04/25 03:36:12;;;;;;;65.55;11.73;;;;;;;;;;4993587;28;20197;-40
2023/04/25 03:38:38;;;;;;;64.28;14.43;;;;;;;;;;4994330;28;20185;-40
2023/04/25 03:41:04;;;;;;;41.10;11.13;;;;;;;;;;4994191;28;20236;-40
2023/04/25 03:43:30;;;;;;;40.60;9.30;;;;;;;;;;4994291;28;20185;-40
2023/04/25 03:45:56;;;;;;;43.53;9.93;;;;;;;;;;4994499;28;20519;-40
2023/04/25 03:48:24;;;;;;;44.42;9.95;;;;;;;;;;4994085;28;20204;-40
2023/04/25 03:50:50;;;;;;;43.17;11.38;;;;;;;;;;4994355;28;20173;-40
2023/04/25 03:53:16;;;;;;;41.05;10.02;;;;;;;;;;4993362;28;20280;-40
2023/04/25 03:55:42;;;;;;;50.92;11.88;;;;;;;;;;4994257;28;20197;-40
2023/04/25 03:58:08;;;;;;;40.42;11.13;;;;;;;;;;4994272;28;20189;-40
2023/04/25 04:00:34;;;;;;;44.33;10.70;;;;;;;;;;4993562;28;20288;-41
2023/04/25 04:03:00;;;;;;;49.10;11.32;;;;;;;;;;4993562;28;20223;-40
2023/04/25 04:05:27;;;;;;;40.25;10.43;;;;;;;;;;4994178;28;20181;-40
2023/04/25 04:07:53;;;;;;;36.67;10.50;;;;;;;;;;4993766;28;20173;-40
2023/04/25 04:10:19;;;;;;;33.85;10.02;;;;;;;;;;4994195;28;20553;-40
2023/04/25 04:12:45;;;;;;;36.97;9.70;;;;;;;;;;4994564;28;20185;-40
2023/04/25 04:15:11;;;;;;;34.67;9.35;;;;;;;;;;4993898;28;20192;-41
2023/04/25 04:17:37;;;;;;;39.90;10.05;;;;;;;;;;4994145;28;20196;-41
2023/04/25 04:20:03;;;;;;;30.00;10.55;;;;;;;;;;4994104;28;20446;-41
2023/04/25 04:22:29;;;;;;;35.83;10.07;;;;;;;;;;4993541;28;20211;-41
2023/04/25 04:24:56;;;;;;;36.40;9.40;;;;;;;;;;4994105;28;20185;-40
2023/04/25 04:27:22;;;;;;;33.13;9.75;;;;;;;;;;4993139;28;20259;-41
2023/04/25 04:29:49;;;;;;;30.80;10.20;;;;;;;;;;4994539;28;20193;-41
2023/04/25 04:32:15;;;;;;;31.45;9.70;;;;;;;;;;4994155;28;20177;-41
2023/04/25 04:34:41;;;;;;;36.75;9.77;;;;;;;;;;4993963;28;20181;-41
2023/04/25 04:37:07;;;;;;;33.40;9.40;;;;;;;;;;4993657;28;20228;-41
2023/04/25 04:39:37;;;;;;;31.15;9.07;;;;;;;;;;4994161;28;20252;-41
2023/04/25 04:42:03;;;;;;;27.85;9.55;;;;;;;;;;4997185;28;20522;-41
2023/04/25 04:44:32;;;;;;;30.17;9.25;;;;;;;;;;4996805;28;20492;-41
2023/04/25 04:46:58;;;;;;;24.80;8.63;;;;;;;;;;4998050;28;20260;-41
2023/04/25 04:49:24;;;;;;;28.52;9.27;;;;;;;;;;4997404;28;20265;-41
2023/04/25 04:51:50;;;;;;;32.72;8.90;;;;;;;;;;4997948;28;20185;-41
2023/04/25 04:54:16;;;;;;;33.28;9.10;;;;;;;;;;4995783;28;20192;-41
2023/04/25 04:56:42;;;;;;;24.60;7.78;;;;;;;;;;4998205;28;20185;-41
2023/04/25 04:59:08;;;;;;;28.92;8.07;;;;;;;;;;4995981;28;20185;-40
2023/04/25 05:01:35;;;;;;;30.45;8.43;;;;;;;;;;4997172;28;20212;-41
2023/04/25 05:04:03;;;;;;;28.60;8.57;;;;;;;;;;4997492;28;20193;-41
2023/04/25 05:06:29;;;;;;;24.92;9.10;;;;;;;;;;4997178;28;20181;-41
2023/04/25 05:08:55;;;;;;;27.60;8.70;;;;;;;;;;4996099;28;20264;-41
2023/04/25 05:11:22;;;;;;;27.48;7.88;;;;;;;;;;4997471;28;20285;-41
2023/04/25 05:13:48;;;;;;;22.88;8.23;;;;;;;;;;4996717;28;20197;-41
2023/04/25 05:16:13;;;;;;;17.95;6.95;;;;;;;;;;4996556;28;20217;-41
2023/04/25 05:18:40;;;;;;;25.60;7.07;;;;;;;;;;4996843;28;20185;-41
2023/04/25 05:21:06;;;;;;;20.98;8.10;;;;;;;;;;4995940;28;20177;-41
2023/04/25 05:23:33;;;;;;;20.20;7.80;;;;;;;;;;4991161;28;20201;-41
2023/04/25 05:25:59;;;;;;;22.63;7.68;;;;;;;;;;4995030;28;20511;-41
2023/04/25 05:28:25;;;;;;;18.25;6.60;;;;;;;;;;4996676;28;20443;-41
2023/04/25 05:30:51;;;;;;;19.00;7.30;;;;;;;;;;4996855;28;20189;-41
2023/04/25 05:33:17;;;;;;;17.98;6.68;;;;;;;;;;4996282;28;20189;-41
2023/04/25 05:35:43;;;;;;;19.88;6.82;;;;;;;;;;4997402;28;20189;-41
2023/04/25 05:38:09;;;;;;;16.23;6.50;;;;;;;;;;4978480;28;20207;-41
2023/04/25 05:40:35;;;;;;;19.42;6.45;;;;;;;;;;4995554;28;20185;-41
2023/04/25 05:43:01;;;;;;;16.80;6.88;;;;;;;;;;4996594;28;20208;-41
2023/04/25 05:45:27;;;;;;;16.92;6.55;;;;;;;;;;4996034;28;20619;-41
2023/04/25 05:47:53;;;;;;;14.52;6.25;;;;;;;;;;4995015;28;20675;-41
2023/04/25 05:50:19;;;;;;;17.30;5.72;;;;;;;;;;4978919;28;20204;-41
2023/04/25 05:52:45;;;;;;;14.77;5.60;;;;;;;;;;4995015;28;20185;-41
2023/04/25 05:55:10;;;;;;;15.73;5.35;;;;;;;;;;4996216;28;20228;-41
2023/04/25 05:57:36;;;;;;;19.60;5.30;;;;;;;;;;4996420;28;20207;-41
2023/04/25 06:00:07;;;;;;;13.30;5.75;;;;;;;;;;4996141;28;20195;-41
2023/04/25 06:02:34;;;;;;;16.83;6.00;;;;;;;;;;4995169;28;20213;-41
2023/04/25 06:05:03;;;;;;;14.40;6.10;;;;;;;;;;4979432;28;20212;-41
2023/04/25 06:07:29;;;;;;;13.75;4.80;;;;;;;;;;4995881;28;20184;-41
2023/04/25 06:09:55;;;;;;;16.45;5.63;;;;;;;;;;4996045;28;20181;-41
2023/04/25 06:12:21;;;;;;;16.65;5.20;;;;;;;;;;4995865;28;20196;-41
2023/04/25 06:14:47;;;;;;;11.38;4.70;;;;;;;;;;4994723;28;20562;-41
2023/04/25 06:17:13;;;;;;;12.18;4.68;;;;;;;;;;4993032;28;20193;-41
2023/04/25 06:19:39;;;;;;;14.20;5.28;;;;;;;;;;4995963;28;20193;-41
2023/04/25 06:22:07;;;;;;;12.30;5.18;;;;;;;;;;4995395;28;20209;-41
2023/04/25 06:24:33;;;;;;;12.82;5.40;;;;;;;;;;4994764;28;20212;-41
2023/04/25 06:26:58;;;;;;;11.95;4.97;;;;;;;;;;4994259;28;20197;-41
2023/04/25 06:29:24;;;;;;;12.80;4.70;;;;;;;;;;4995062;28;20484;-41
2023/04/25 06:31:50;;;;;;;13.13;5.47;;;;;;;;;;4996429;28;20193;-41
2023/04/25 06:34:17;;;;;;;13.65;5.07;;;;;;;;;;4995835;28;20264;-41
2023/04/25 06:36:44;;;;;;;11.10;4.70;;;;;;;;;;4994849;28;20177;-41
2023/04/25 06:39:10;;;;;;;11.68;4.47;;;;;;;;;;4995645;28;20181;-41
2023/04/25 06:41:36;;;;;;;13.15;4.78;;;;;;;;;;4994621;28;20204;-40
2023/04/25 06:44:02;;;;;;;10.10;4.05;;;;;;;;;;4995721;28;20181;-41
2023/04/25 06:46:28;;;;;;;10.80;4.35;;;;;;;;;;4994221;28;20212;-41
2023/04/25 06:48:54;;;;;;;8.60;4.45;;;;;;;;;;4995880;28;20204;-41
2023/04/25 06:51:19;;;;;;;9.50;4.10;;;;;;;;;;4993356;28;20220;-41
2023/04/25 06:53:45;;;;;;;11.30;4.50;;;;;;;;;;4994943;28;20193;-41
2023/04/25 06:56:11;;;;;;;9.32;4.13;;;;;;;;;;4994257;28;20231;-41
2023/04/25 06:58:37;;;;;;;7.60;4.15;;;;;;;;;;4995424;28;20238;-41
2023/04/25 07:01:03;;;;;;;10.02;3.78;;;;;;;;;;4996005;28;20591;-41
2023/04/25 07:03:30;;;;;;;11.13;4.57;;;;;;;;;;4994953;28;20213;-40
2023/04/25 07:05:56;;;;;;;10.57;4.05;;;;;;;;;;4995601;28;20188;-41
2023/04/25 07:08:21;;;;;;;8.25;3.83;;;;;;;;;;4995798;28;20525;-41
2023/04/25 07:10:47;;;;;;;6.57;3.50;;;;;;;;;;4995471;28;20192;-41
2023/04/25 07:13:13;;;;;;;7.32;4.22;;;;;;;;;;4995453;28;20192;-41
2023/04/25 07:15:39;;;;;;;7.85;3.67;;;;;;;;;;4995664;28;20211;-41
2023/04/25 07:18:05;;;;;;;7.03;3.33;;;;;;;;;;4994310;28;20267;-41
2023/04/25 07:20:32;;;;;;;6.30;3.55;;;;;;;;;;4995611;28;20557;-41
2023/04/25 07:22:58;;;;;;;10.00;3.95;;;;;;;;;;4995489;28;20209;-41
2023/04/25 07:25:24;;;;;;;7.13;3.47;;;;;;;;;;4995857;28;20457;-40
2023/04/25 07:27:50;;;;;;;6.53;3.65;;;;;;;;;;4994531;28;20252;-41
2023/04/25 07:30:16;;;;;;;9.88;4.13;;;;;;;;;;4995326;28;20288;-41
2023/04/25 07:32:42;;;;;;;7.63;3.38;;;;;;;;;;4995230;28;20185;-41
2023/04/25 07:35:08;;;;;;;6.97;3.83;;;;;;;;;;4995638;28;20208;-41
2023/04/25 07:37:34;;;;;;;7.28;3.53;;;;;;;;;;4994741;28;20205;-41
2023/04/25 07:40:00;;;;;;;6.43;3.03;;;;;;;;;;4995666;28;20189;-41
2023/04/25 07:42:26;;;;;;;9.70;3.08;;;;;;;;;;4993833;28;20263;-41
2023/04/25 07:44:52;;;;;;;6.20;3.17;;;;;;;;;;4995411;28;20185;-40
2023/04/25 07:47:19;;;;;;;5.82;3.40;;;;;;;;;;4994727;28;20193;-41
2023/04/25 07:49:45;;;;;;;6.88;3.80;;;;;;;;;;4995071;28;20209;-41
2023/04/25 07:52:11;;;;;;;5.07;3.28;;;;;;;;;;4995285;28;20455;-40
2023/04/25 07:54:37;;;;;;;8.07;3.50;;;;;;;;;;4978176;28;20228;-41
2023/04/25 07:57:03;;;;;;;6.68;3.03;;;;;;;;;;4994474;28;20177;-41
2023/04/25 07:59:29;;;;;;;7.50;3.25;;;;;;;;;;4995136;28;20196;-41
2023/04/25 08:01:57;;;;;;;6.80;3.35;;;;;;;;;;4994934;28;20625;-41
2023/04/25 08:04:23;;;;;;;5.22;2.97;;;;;;;;;;4992797;28;20264;-40
2023/04/25 08:06:48;;;;;;;6.38;2.92;;;;;;;;;;4994646;28;20184;-41
2023/04/25 08:09:15;;;;;;;5.28;2.92;;;;;;;;;;4994631;28;20185;-41
2023/04/25 08:11:41;;;;;;;6.88;2.90;;;;;;;;;;4994435;28;20180;-40
2023/04/25 08:14:07;;;;;;;5.40;3.20;;;;;;;;;;4995143;28;20193;-41
2023/04/25 08:16:33;;;;;;;6.15;2.72;;;;;;;;;;4994123;28;20189;-41
2023/04/25 08:19:00;;;;;;;5.15;2.60;;;;;;;;;;4994647;28;20247;-41
2023/04/25 08:21:27;;;;;;;6.53;2.70;;;;;;;;;;4994779;28;20211;-41
2023/04/25 08:23:53;;;;;;;5.20;2.65;;;;;;;;;;4994861;28;20205;-41
2023/04/25 08:26:19;;;;;;;4.53;2.70;;;;;;;;;;4994133;28;20208;-41
2023/04/25 08:28:45;;;;;;;3.63;2.47;;;;;;;;;;4994496;28;20264;-41
2023/04/25 08:31:11;;;;;;;4.78;2.70;;;;;;;;;;4994703;28;20169;-40
2023/04/25 08:33:36;;;;;;;5.45;2.95;;;;;;;;;;4994645;28;20193;-41
2023/04/25 08:36:02;;;;;;;5.07;2.80;;;;;;;;;;4994405;28;20268;-41
2023/04/25 08:38:28;;;;;;;5.40;2.92;;;;;;;;;;4994635;28;20197;-41
2023/04/25 08:40:55;;;;;;;6.07;2.67;;;;;;;;;;4993541;28;20617;-41
2023/04/25 08:43:21;;;;;;;4.18;2.50;;;;;;;;;;4994153;28;20228;-41
2023/04/25 08:45:47;;;;;;;4.72;2.78;;;;;;;;;;4994563;28;20445;-41
2023/04/25 08:48:14;;;;;;;2.95;2.20;;;;;;;;;;4994291;28;20181;-41
2023/04/25 08:50:45;;;;;;;3.47;2.38;;;;;;;;;;4994456;28;20177;-41
2023/04/25 08:53:18;;;;;;;4.38;2.50;;;;;;;;;;4994365;28;20189;-41
2023/04/25 08:55:44;;;;;;;4.53;2.33;;;;;;;;;;4994804;28;20312;-41
2023/04/25 08:58:11;;;;;;;3.75;2.25;;;;;;;;;;4993873;28;20232;-41
2023/04/25 09:00:37;;;;;;;3.15;2.20;;;;;;;;;;4994890;28;20264;-41
2023/04/25 09:03:03;;;;;;;4.80;2.28;;;;;;;;;;4994110;28;20280;-41
2023/04/25 09:05:29;;;;;;;3.60;2.25;;;;;;;;;;4994200;28;20177;-41
2023/04/25 09:07:56;;;;;;;4.07;2.35;;;;;;;;;;4993602;28;20617;-41
2023/04/25 09:10:22;;;;;;;2.83;2.15;;;;;;;;;;4994744;28;20177;-41
2023/04/25 09:13:08;;;;;;;3.60;2.22;;;;;;;;;;4994252;28;20260;-41
2023/04/25 09:15:47;;;;;;;4.65;2.50;;;;;;;;;;4994098;28;20272;-41
2023/04/25 09:18:12;;;;;;;3.25;2.53;;;;;;;;;;4994005;28;20199;-41
2023/04/25 09:20:42;;;;;;;3.67;2.50;;;;;;;;;;4994005;28;20472;-41
2023/04/25 09:23:08;;;;;;;3.70;2.30;;;;;;;;;;4994260;28;20212;-41
2023/04/25 09:25:38;;;;;;;4.22;2.00;;;;;;;;;;4994056;28;20470;-41
2023/04/25 09:28:05;;;;;;;4.40;2.17;;;;;;;;;;4995743;28;20252;-41
2023/04/25 09:30:32;;;;;;;4.75;2.47;;;;;;;;;;4997492;28;20181;-41
2023/04/25 09:33:04;;;;;;;3.22;2.03;;;;;;;;;;4997169;28;20204;-41
2023/04/25 09:35:35;;;;;;;4.80;2.22;;;;;;;;;;4997761;28;20453;-41
2023/04/25 09:38:01;;;;;;;3.63;2.10;;;;;;;;;;4997010;28;20265;-41
2023/04/25 09:40:27;;;;;;;4.22;2.50;;;;;;;;;;4996478;28;20268;-41
2023/04/25 09:42:53;;;;;;;4.43;2.60;;;;;;;;;;4997349;28;20220;-41
2023/04/25 09:45:19;;;;;;;3.63;2.00;;;;;;;;;;4996575;28;20343;-41
2023/04/25 09:47:45;;;;;;;3.40;2.15;;;;;;;;;;4996323;28;20189;-41
2023/04/25 09:50:15;;;;;;;2.60;1.80;;;;;;;;;;4997784;28;20434;-41
2023/04/25 09:52:41;;;;;;;5.28;2.38;;;;;;;;;;4996960;28;20501;-41
2023/04/25 09:55:07;;;;;;;2.58;1.70;;;;;;;;;;4997258;28;20208;-41
2023/04/25 09:57:33;;;;;;;3.13;2.00;;;;;;;;;;4996318;28;20189;-41
2023/04/25 10:00:00;;;;;;;2.55;1.80;;;;;;;;;;4997288;28;20185;-41
2023/04/25 10:02:27;;;;;;;4.72;2.25;;;;;;;;;;4996714;28;20564;-41
2023/04/25 10:04:54;;;;;;;3.45;2.03;;;;;;;;;;4996590;28;20208;-41
2023/04/25 10:07:28;;;;;;;2.63;2.00;;;;;;;;;;4996809;28;20434;-41
2023/04/25 10:10:13;;;;;;;2.55;1.85;;;;;;;;;;4997180;28;20173;-41
2023/04/25 10:12:40;;;;;;;2.50;1.73;;;;;;;;;;4997100;28;20208;-41
2023/04/25 10:15:07;;;;;;;3.17;2.10;;;;;;;;;;4996515;28;20292;-41
2023/04/25 10:17:34;;;;;;;2.58;1.63;;;;;;;;;;4995586;28;20239;-41
2023/04/25 10:20:03;;;;;;;3.10;2.03;;;;;;;;;;4997207;28;20488;-41
2023/04/25 10:22:30;;;;;;;3.55;1.95;;;;;;;;;;4997072;28;20232;-41
2023/04/25 10:24:57;;;;;;;2.08;1.67;;;;;;;;;;4996836;28;20179;-41
2023/04/25 10:27:23;;;;;;;2.75;1.77;;;;;;;;;;4996104;28;20263;-41
2023/04/25 10:30:04;;;;;;;3.00;1.73;;;;;;;;;;4996539;28;20258;-41
2023/04/25 10:32:32;;;;;;;2.00;1.52;;;;;;;;;;4996736;28;20446;-41
2023/04/25 10:34:58;;;;;;;2.78;1.58;;;;;;;;;;4996436;28;20177;-41
2023/04/25 10:37:24;;;;;;;2.22;1.65;;;;;;;;;;4995720;28;20640;-41
2023/04/25 10:39:53;;;;;;;2.30;1.50;;;;;;;;;;4996078;28;20189;-41
2023/04/25 10:42:18;;;;;;;2.25;1.70;;;;;;;;;;4995698;28;20343;-41
2023/04/25 10:45:02;;;;;;;2.53;1.77;;;;;;;;;;4995909;28;20283;-41
2023/04/25 10:47:35;;;;;;;2.10;1.35;;;;;;;;;;4995646;28;20173;-41
2023/04/25 10:50:05;;;;;;;1.75;1.40;;;;;;;;;;4996607;28;20169;-41
2023/04/25 10:52:33;;;;;;;2.67;1.52;;;;;;;;;;4996316;28;20181;-41
2023/04/25 10:55:00;;;;;;;2.05;1.40;;;;;;;;;;4995952;28;20572;-41
2023/04/25 10:57:36;;;;;;;1.98;1.50;;;;;;;;;;4994887;28;20272;-41
2023/04/25 11:00:06;;;;;;;2.88;1.75;;;;;;;;;;4995863;28;20580;-41
2023/04/25 11:02:32;;;;;;;2.25;1.83;;;;;;;;;;4996024;28;20201;-41
2023/04/25 11:04:58;;;;;;;2.22;1.70;;;;;;;;;;4996029;28;20507;-41
2023/04/25 11:07:34;;;;;;;1.60;1.48;;;;;;;;;;4994833;28;20193;-41
2023/04/25 11:10:02;;;;;;;2.17;1.55;;;;;;;;;;4995787;28;20176;-41
2023/04/25 11:12:30;;;;;;;1.73;1.55;;;;;;;;;;4994897;28;20468;-41
2023/04/25 11:15:00;;;;;;;2.92;1.42;;;;;;;;;;4992365;28;20276;-41
2023/04/25 11:17:26;;;;;;;1.77;1.48;;;;;;;;;;4993597;28;20454;-41
2023/04/25 11:19:52;;;;;;;2.50;1.88;;;;;;;;;;4994681;28;20187;-41
2023/04/25 11:22:18;;;;;;;1.92;1.65;;;;;;;;;;4994822;28;20209;-41
2023/04/25 11:24:46;;;;;;;2.58;1.50;;;;;;;;;;4993582;28;20260;-41
2023/04/25 11:27:12;;;;;;;1.27;1.17;;;;;;;;;;4993106;28;20276;-41
2023/04/25 11:29:38;;;;;;;1.95;1.48;;;;;;;;;;4993654;28;20462;-41
2023/04/25 11:32:04;;;;;;;2.80;1.40;;;;;;;;;;4995433;28;20178;-41
2023/04/25 11:34:31;;;;;;;2.15;1.40;;;;;;;;;;4993489;28;20189;-41
2023/04/25 11:36:57;;;;;;;2.00;1.48;;;;;;;;;;4993034;28;20195;-41
2023/04/25 11:39:27;;;;;;;1.40;1.27;;;;;;;;;;4993613;28;20195;-41
2023/04/25 11:41:53;;;;;;;1.92;1.33;;;;;;;;;;4993857;28;20217;-41
2023/04/25 11:44:20;;;;;;;1.50;1.40;;;;;;;;;;4994792;28;20189;-41
2023/04/25 11:46:46;;;;;;;2.85;1.67;;;;;;;;;;4992192;28;20228;-41
2023/04/25 11:49:12;;;;;;;2.17;1.50;;;;;;;;;;4994324;28;20188;-41
2023/04/25 11:51:39;;;;;;;2.08;1.30;;;;;;;;;;4994267;28;20192;-41
2023/04/25 11:54:05;;;;;;;1.90;1.52;;;;;;;;;;4994415;28;20445;-41
2023/04/25 11:56:32;;;;;;;1.83;1.25;;;;;;;;;;4992688;28;20559;-41
2023/04/25 11:59:02;;;;;;;1.27;1.10;;;;;;;;;;4994222;28;20182;-41
2023/04/25 12:01:32;;;;;;;1.83;1.38;;;;;;;;;;4994285;28;20204;-41
2023/04/25 12:03:58;;;;;;;1.60;1.50;;;;;;;;;;4991440;28;20486;-41
2023/04/25 12:06:28;;;;;;;2.42;1.30;;;;;;;;;;4993775;28;20500;-41
2023/04/25 12:09:01;;;;;;;2.35;1.50;;;;;;;;;;4994497;28;20196;-41
2023/04/25 12:11:27;;;;;;;1.70;1.45;;;;;;;;;;4992981;28;20188;-41
2023/04/25 12:13:53;;;;;;;1.85;1.33;;;;;;;;;;4993131;28;20189;-41
2023/04/25 12:16:19;;;;;;;1.58;1.33;;;;;;;;;;4993659;28;20173;-41
2023/04/25 12:18:45;;;;;;;1.70;1.35;;;;;;;;;;4994031;28;20200;-41
2023/04/25 12:21:11;;;;;;;1.27;1.17;;;;;;;;;;4993735;28;20264;-41
2023/04/25 12:23:39;;;;;;;1.00;1.00;;;;;;;;;;4993570;28;20272;-41
2023/04/25 12:26:05;;;;;;;1.30;1.20;;;;;;;;;;4994302;28;20192;-41
2023/04/25 12:28:33;;;;;;;1.20;1.00;;;;;;;;;;4994087;28;20227;-41
2023/04/25 12:31:05;;;;;;;3.00;1.40;;;;;;;;;;4994372;28;20545;-41
2023/04/25 12:33:33;;;;;;;1.38;1.27;;;;;;;;;;4993635;28;20200;-41
2023/04/25 12:36:00;;;;;;;1.33;1.13;;;;;;;;;;4994286;28;20428;-41
2023/04/25 12:38:30;;;;;;;1.30;1.20;;;;;;;;;;4992972;28;20276;-41
2023/04/25 12:40:56;;;;;;;1.20;1.10;;;;;;;;;;4992428;28;20185;-40
2023/04/25 12:43:22;;;;;;;1.10;1.00;;;;;;;;;;4991091;28;20220;-41
2023/04/25 12:45:49;;;;;;;1.08;0.85;;;;;;;;;;4994363;28;20188;-41
2023/04/25 12:48:15;;;;;;;1.35;1.17;;;;;;;;;;4994514;28;20501;-41
2023/04/25 12:50:42;;;;;;;1.35;0.93;;;;;;;;;;4994282;28;20311;-41
2023/04/25 12:53:08;;;;;;;1.10;1.00;;;;;;;;;;4987935;28;20232;-41
2023/04/25 12:55:34;;;;;;;1.88;1.30;;;;;;;;;;4993605;28;20236;-41
2023/04/25 12:58:00;;;;;;;1.20;1.00;;;;;;;;;;4993813;28;20181;-41
2023/04/25 13:00:26;;;;;;;1.35;1.25;;;;;;;;;;4994664;28;20188;-41
2023/04/25 13:02:52;;;;;;;1.50;1.08;;;;;;;;;;4997717;28;21477;-41
2023/04/25 13:05:18;;;;;;;1.35;1.25;;;;;;;;;;4997844;28;20181;-41
2023/04/25 13:07:44;;;;;;;2.35;1.10;;;;;;;;;;4995743;28;20219;-41
2023/04/25 13:10:11;;;;;;;1.83;1.20;;;;;;;;;;4996307;28;20188;-41
2023/04/25 13:12:37;;;;;;;2.13;1.20;;;;;;;;;;4996657;28;20182;-41
2023/04/25 13:15:03;;;;;;;1.80;1.25;;;;;;;;;;4997952;28;20196;-41
2023/04/25 13:17:28;;;;;;;3.30;1.52;;;;;;;;;;4996557;28;20189;-41
2023/04/25 13:19:54;;;;;;;3.55;1.40;;;;;;;;;;4993402;28;20200;-40
2023/04/25 13:22:20;;;;;;;1.15;1.05;;;;;;;;;;4996227;28;20458;-41
2023/04/25 13:24:46;;;;;;;1.83;1.17;;;;;;;;;;4990193;28;20200;-41
2023/04/25 13:27:13;;;;;;;1.85;1.20;;;;;;;;;;4996050;28;20239;-41
2023/04/25 13:29:40;;;;;;;2.78;1.30;;;;;;;;;;4996911;28;20267;-41
2023/04/25 13:32:06;;;;;;;1.70;1.20;;;;;;;;;;4996896;28;20188;-41
2023/04/25 13:34:32;;;;;;;2.72;1.33;;;;;;;;;;5004679;28;20188;-41
2023/04/25 13:37:00;;;;;;;3.65;1.50;;;;;;;;;;4996871;28;20243;-40
2023/04/25 13:39:26;;;;;;;8.85;1.63;;;;;;;;;;4997169;28;20526;-40
2023/04/25 13:41:52;;;;;;;4.22;1.40;;;;;;;;;;4996440;28;20238;-40
2023/04/25 13:44:18;;;;;;;6.85;1.58;;;;;;;;;;4997631;28;20193;-40
2023/04/25 13:46:44;;;;;;;4.18;1.25;;;;;;;;;;4995944;28;20264;-41
2023/04/25 13:49:11;;;;;;;7.28;1.55;;;;;;;;;;4996638;28;20203;-41
2023/04/25 13:51:37;;;;;;;3.97;1.80;;;;;;;;;;4996590;28;20195;-40
2023/04/25 13:54:03;;;;;;;8.95;2.17;;;;;;;;;;4996333;28;20216;-40
2023/04/25 13:56:28;;;;;;;7.97;1.92;;;;;;;;;;4995852;28;20292;-41
2023/04/25 13:58:54;;;;;;;2.92;1.33;;;;;;;;;;4996224;28;20189;-40
2023/04/25 14:01:21;;;;;;;6.40;1.77;;;;;;;;;;4996758;28;20455;-41
2023/04/25 14:03:47;;;;;;;7.07;1.45;;;;;;;;;;4996890;28;20220;-40
2023/04/25 14:06:13;;;;;;;5.38;1.58;;;;;;;;;;4994162;28;20185;-41
2023/04/25 14:08:40;;;;;;;3.65;1.85;;;;;;;;;;4993240;28;20177;-41
2023/04/25 14:11:05;;;;;;;4.28;1.60;;;;;;;;;;4989176;28;20211;-41
2023/04/25 14:13:31;;;;;;;2.80;1.33;;;;;;;;;;4996643;28;20213;-41
2023/04/25 14:15:57;;;;;;;6.05;1.60;;;;;;;;;;4996137;28;20243;-41
2023/04/25 14:18:23;;;;;;;6.50;1.70;;;;;;;;;;4995234;28;20189;-41
2023/04/25 14:20:49;;;;;;;8.50;1.83;;;;;;;;;;4978909;28;20300;-41
2023/04/25 14:23:15;;;;;;;9.20;1.83;;;;;;;;;;4995869;28;20292;-41
2023/04/25 14:25:42;;;;;;;10.25;1.77;;;;;;;;;;4996028;28;20181;-41
2023/04/25 14:28:07;;;;;;;5.45;1.45;;;;;;;;;;4978797;28;20173;-41
2023/04/25 14:30:33;;;;;;;5.22;2.00;;;;;;;;;;4995770;28;20185;-40
2023/04/25 14:32:59;;;;;;;7.68;1.52;;;;;;;;;;4994485;28;20548;-41
2023/04/25 14:35:25;;;;;;;5.22;1.65;;;;;;;;;;4996303;28;20196;-41